Time;durP1;ratioP1;P1;durP2;ratioP2;P2;SDS_P1;SDS_P2;PMS_P1;PMS_P2;Temp;Humidity;BMP_temperature;BMP_pressure;BME280_temperature;BME280_humidity;BME280_pressure;Samples;Min_cycle;Max_cycle;Signal;HPM_P1;HPM_P2
2022/05/08 00:00:34;;;;;;;8.50;6.10;;;10.80;30.70;;;;;;10396872;28;20278;-87
2022/05/08 00:05:56;;;;;;;8.57;5.47;;;10.70;32.90;;;;;;10383003;28;20238;-88
2022/05/08 00:11:17;;;;;;;9.10;5.40;;;10.70;34.70;;;;;;10382757;28;20204;-87
2022/05/08 00:16:39;;;;;;;7.70;4.60;;;10.60;33.70;;;;;;10382280;28;20232;-88
2022/05/08 00:22:00;;;;;;;7.03;5.00;;;10.50;41.40;;;;;;10382343;28;20208;-87
2022/05/08 00:27:34;;;;;;;7.90;5.00;;;10.40;50.20;;;;;;10383099;28;20275;-87
2022/05/08 00:32:55;;;;;;;6.47;4.97;;;10.40;50.90;;;;;;10381987;28;20199;-86
2022/05/08 00:38:17;;;;;;;8.90;5.00;;;10.40;53.90;;;;;;10381277;28;20239;-86
2022/05/08 00:43:40;;;;;;;7.03;4.80;;;10.30;56.00;;;;;;10381760;28;20208;-86
2022/05/08 00:49:02;;;;;;;5.20;4.07;;;10.30;58.90;;;;;;10395580;28;20235;-87
2022/05/08 00:54:23;;;;;;;7.73;5.67;;;10.30;58.50;;;;;;10381790;28;20513;-88
2022/05/08 00:59:45;;;;;;;7.60;5.43;;;10.20;68.00;;;;;;10381544;28;20440;-87
2022/05/08 01:05:06;;;;;;;7.80;5.40;;;10.20;65.10;;;;;;10395307;28;20234;-86
2022/05/08 01:10:28;;;;;;;5.83;4.70;;;10.10;63.40;;;;;;10395136;28;20224;-87
2022/05/08 01:15:49;;;;;;;5.93;5.07;;;10.10;61.90;;;;;;10395162;28;20487;-86
2022/05/08 01:21:19;;;;;;;6.83;5.33;;;10.10;62.60;;;;;;10381258;28;20203;-86
2022/05/08 01:26:40;;;;;;;7.63;5.53;;;10.10;75.30;;;;;;10367571;28;20233;-86
2022/05/08 01:32:02;;;;;;;5.23;4.60;;;10.10;69.40;;;;;;10381451;28;20214;-88
2022/05/08 01:37:25;;;;;;;8.57;5.70;;;10.00;69.70;;;;;;10381964;28;20267;-87
2022/05/08 01:42:46;;;;;;;9.67;6.33;;;9.90;73.90;;;;;;10388451;28;20230;-86
2022/05/08 01:48:25;;;;;;;7.20;5.83;;;9.90;75.10;;;;;;10402043;28;20274;-86
2022/05/08 01:53:46;;;;;;;7.17;6.13;;;9.80;93.00;;;;;;10401912;28;20204;-87
2022/05/08 01:59:08;;;;;;;7.30;6.47;;;9.70;91.90;;;;;;10387770;28;20238;-87
2022/05/08 02:04:29;;;;;;;7.80;6.53;;;9.70;91.60;;;;;;10401481;28;20185;-86
2022/05/08 02:09:51;;;;;;;8.90;5.80;;;9.60;94.50;;;;;;10387253;28;20234;-88
2022/05/08 02:15:14;;;;;;;6.73;5.27;;;9.50;98.20;;;;;;10400765;28;20191;-82
2022/05/08 02:20:37;;;;;;;9.53;6.07;;;9.40;96.10;;;;;;10386643;28;20207;-86
2022/05/08 02:25:58;;;;;;;8.07;5.77;;;9.40;99.90;;;;;;10372670;28;20222;-85
2022/05/08 02:31:19;;;;;;;7.00;5.33;;;9.30;97.30;;;;;;10387096;28;20227;-88
2022/05/08 02:36:41;;;;;;;8.73;5.57;;;9.30;99.90;;;;;;10371950;28;20240;-86
2022/05/08 02:42:02;;;;;;;7.53;6.20;;;9.30;99.10;;;;;;10399647;28;20275;-86
2022/05/08 02:47:24;;;;;;;6.90;5.50;;;9.20;97.90;;;;;;10399407;28;20412;-85
2022/05/08 02:52:45;;;;;;;8.33;6.00;;;9.20;99.90;;;;;;10388772;28;20264;-87
2022/05/08 03:03:47;;;;;;;7.67;6.00;;;9.10;99.90;;;;;;10398883;28;20208;-88
2022/05/08 03:09:08;;;;;;;8.53;6.80;;;9.10;99.90;;;;;;10384813;28;20560;-86
2022/05/08 03:14:29;;;;;;;8.53;5.87;;;9.00;99.90;;;;;;10384979;28;20203;-86
2022/05/08 03:19:51;;;;;;;7.80;5.73;;;9.00;99.90;;;;;;10384546;28;20525;-87
2022/05/08 03:25:12;;;;;;;9.83;6.00;;;9.00;99.90;;;;;;10384162;28;20208;-87
2022/05/08 03:30:33;;;;;;;8.70;6.97;;;9.10;99.90;;;;;;10384160;28;20208;-87
2022/05/08 03:35:55;;;;;;;9.87;7.07;;;9.00;99.90;;;;;;10397019;28;20244;-88
2022/05/08 03:41:16;;;;;;;12.27;7.43;;;9.00;96.90;;;;;;10383612;28;20219;-87
2022/05/08 03:46:38;;;;;;;12.17;7.63;;;8.80;99.90;;;;;;10383425;28;20229;-86
2022/05/08 03:51:59;;;;;;;8.40;6.83;;;8.90;99.90;;;;;;10369318;28;20199;-85
2022/05/08 03:57:21;;;;;;;12.43;7.30;;;9.10;99.90;;;;;;10397176;28;20421;-85
2022/05/08 04:02:43;;;;;;;8.50;7.10;;;9.20;99.90;;;;;;10382921;28;20196;-87
2022/05/08 04:08:04;;;;;;;11.00;7.70;;;9.30;99.90;;;;;;10396063;28;20238;-85
2022/05/08 04:13:28;;;;;;;10.73;7.10;;;9.30;99.90;;;;;;10396553;28;20237;-86
2022/05/08 04:18:51;;;;;;;10.43;8.00;;;9.40;99.90;;;;;;10382784;28;20249;-88
2022/05/08 04:24:18;;;;;;;9.73;7.63;;;9.40;99.90;;;;;;10382008;28;20215;-85
2022/05/08 04:29:39;;;;;;;13.40;7.77;;;9.40;99.90;;;;;;10382199;28;20548;-87
2022/05/08 04:35:01;;;;;;;9.47;7.63;;;9.40;99.90;;;;;;10368226;28;20236;-87
2022/05/08 04:40:24;;;;;;;11.80;7.50;;;9.50;99.90;;;;;;10343667;28;20203;-85
2022/05/08 04:45:46;;;;;;;10.40;7.03;;;9.50;99.90;;;;;;10341055;28;20204;-86
2022/05/08 04:51:07;;;;;;;10.17;7.27;;;9.60;99.90;;;;;;10340869;28;20493;-83
2022/05/08 04:56:30;;;;;;;9.90;7.10;;;9.70;99.90;;;;;;10341590;28;20223;-85
2022/05/08 05:01:51;;;;;;;10.87;7.50;;;9.80;99.90;;;;;;10327458;28;20254;-86
2022/05/08 05:07:13;;;;;;;10.93;6.87;;;9.90;99.90;;;;;;10340658;28;20238;-85
2022/05/08 05:12:34;;;;;;;11.33;7.43;;;10.00;99.90;;;;;;10342899;28;20232;-86
2022/05/08 05:17:58;;;;;;;11.47;6.40;;;10.10;92.00;;;;;;10348455;28;20220;-86
2022/05/08 05:23:19;;;;;;;10.20;6.50;;;10.20;61.90;;;;;;10348029;28;20252;-85
2022/05/08 05:28:41;;;;;;;12.70;6.10;;;10.30;41.30;;;;;;10361998;28;20227;-84
2022/05/08 05:34:02;;;;;;;11.27;5.03;;;10.40;24.50;;;;;;10348189;28;20203;-87
2022/05/08 05:39:24;;;;;;;9.67;5.00;;;10.60;27.00;;;;;;10354577;28;20259;-87
2022/05/08 05:44:45;;;;;;;12.70;5.60;;;11.00;1.50;;;;;;10361016;28;20201;-88
2022/05/08 05:50:08;;;;;;;13.13;5.03;;;11.40;1.00;;;;;;10346972;28;20287;-84
2022/05/08 05:55:29;;;;;;;10.20;4.20;;;11.70;1.00;;;;;;10363271;28;20273;-87
2022/05/08 06:00:51;;;;;;;8.40;3.53;;;12.20;1.00;;;;;;10347237;28;20492;-87
2022/05/08 06:06:14;;;;;;;11.52;3.85;;;12.60;1.00;;;;;;10360130;28;20527;-84
2022/05/08 06:11:35;;;;;;;15.75;3.60;;;13.00;1.00;;;;;;10360448;28;20272;-86
2022/05/08 06:16:57;;;;;;;15.77;3.83;;;13.60;1.00;;;;;;10360063;28;20195;-86
2022/05/08 06:22:19;;;;;;;9.90;3.40;;;14.30;1.00;;;;;;10361560;28;20218;-88
2022/05/08 06:27:40;;;;;;;12.85;3.35;;;15.00;1.00;;;;;;10348875;28;20244;-88
2022/05/08 06:33:01;;;;;;;7.78;2.92;;;15.50;52.20;;;;;;10346182;28;20266;-88
2022/05/08 06:38:29;;;;;;;8.80;2.88;;;16.00;1.00;;;;;;10380506;28;20240;-88
2022/05/08 06:43:50;;;;;;;7.35;2.53;;;16.50;1.00;;;;;;10386073;28;20199;-84
2022/05/08 06:49:12;;;;;;;8.73;2.13;;;16.80;1.00;;;;;;10385328;28;20512;-87
2022/05/08 06:54:33;;;;;;;11.32;2.67;;;17.10;1.00;;;;;;10399405;28;20542;-88
2022/05/08 07:05:40;;;;;;;7.93;2.40;;;17.40;1.00;;;;;;10388564;28;20196;-86
2022/05/08 07:11:01;;;;;;;4.88;2.25;;;17.90;99.90;;;;;;10385012;28;20391;-89
2022/05/08 07:16:22;;;;;;;5.53;2.53;;;18.60;99.90;;;;;;10398344;28;20487;-86
2022/05/08 07:21:44;;;;;;;17.48;2.45;;;18.70;1.00;;;;;;10398573;28;20201;-89
2022/05/08 07:27:05;;;;;;;12.75;2.53;;;18.70;1.00;;;;;;10384461;28;20420;-87
2022/05/08 07:32:26;;;;;;;10.20;2.58;;;19.00;1.00;;;;;;10383932;28;20201;-88
2022/05/08 07:37:49;;;;;;;27.52;3.08;;;19.40;1.00;;;;;;10382144;28;20224;-88
2022/05/08 07:43:13;;;;;;;6.60;2.03;;;19.50;1.00;;;;;;10383875;28;20212;-87
2022/05/08 07:48:34;;;;;;;5.07;1.92;;;19.50;99.90;;;;;;10383325;28;20229;-84
2022/05/08 07:53:57;;;;;;;8.23;2.25;;;19.80;99.90;;;;;;10383283;28;20200;-86
2022/05/08 07:59:20;;;;;;;8.15;2.60;;;20.10;99.90;;;;;;10382662;28;20201;-85
2022/05/08 08:04:41;;;;;;;8.38;2.42;;;20.20;33.10;;;;;;10382787;28;20201;-87
2022/05/08 08:10:03;;;;;;;11.40;2.33;;;20.80;1.00;;;;;;10369487;28;20228;-86
2022/05/08 08:15:25;;;;;;;7.97;1.90;;;21.20;1.00;;;;;;10382368;28;20483;-87
2022/05/08 08:20:47;;;;;;;7.10;2.35;;;21.60;1.00;;;;;;10382796;28;20201;-83
2022/05/08 08:26:10;;;;;;;8.13;2.42;;;21.40;1.00;;;;;;10396191;28;20201;-85
2022/05/08 08:31:31;;;;;;;5.43;2.05;;;21.40;1.00;;;;;;10368339;28;20201;-87
2022/05/08 08:36:53;;;;;;;4.97;1.83;;;21.70;1.00;;;;;;10381123;28;20311;-86
2022/05/08 08:42:29;;;;;;;4.82;2.47;;;21.70;1.00;;;;;;10381744;28;20216;-87
2022/05/08 08:47:53;;;;;;;4.07;1.95;;;22.20;1.00;;;;;;10371157;28;20235;-86
2022/05/08 08:53:14;;;;;;;5.15;1.60;;;22.60;1.00;;;;;;10389980;28;20202;-85
2022/05/08 08:58:36;;;;;;;7.03;1.70;;;22.60;1.00;;;;;;10403866;28;20370;-88
2022/05/08 09:04:00;;;;;;;7.68;2.03;;;22.90;1.00;;;;;;10403756;28;20487;-88
2022/05/08 09:09:26;;;;;;;5.65;2.10;;;23.30;1.00;;;;;;10376150;28;20229;-87
2022/05/08 09:14:47;;;;;;;7.65;2.00;;;23.70;1.00;;;;;;10389308;28;20201;-87
2022/05/08 09:20:32;;;;;;;4.05;1.98;;;23.70;1.00;;;;;;10402829;28;20224;-87
2022/05/08 09:25:56;;;;;;;5.13;2.03;;;23.60;1.00;;;;;;10388838;28;20192;-88
2022/05/08 09:31:24;;;;;;;5.57;1.70;;;23.90;1.00;;;;;;10389589;28;20205;-89
2022/05/08 09:36:47;;;;;;;6.95;1.88;;;24.20;1.00;;;;;;10374456;28;20308;-88
2022/05/08 09:42:34;;;;;;;11.23;2.30;;;24.30;1.00;;;;;;10401803;28;20207;-85
2022/05/08 09:47:57;;;;;;;8.57;2.28;;;24.60;1.00;;;;;;10388263;28;20303;-88
2022/05/08 09:53:20;;;;;;;9.55;2.30;;;24.70;1.00;;;;;;10374272;28;20276;-88
2022/05/08 09:58:41;;;;;;;5.22;1.85;;;24.70;1.00;;;;;;10402026;28;20193;-86
2022/05/08 10:04:03;;;;;;;6.20;1.30;;;25.10;1.00;;;;;;10387794;28;20201;-87
2022/05/08 10:15:19;;;;;;;4.97;2.35;;;24.90;1.00;;;;;;10386934;28;20194;-87
2022/05/08 10:20:58;;;;;;;6.13;1.90;;;24.50;1.00;;;;;;10364004;28;20237;-89
2022/05/08 10:26:22;;;;;;;6.70;2.03;;;24.50;1.00;;;;;;10375039;28;20197;-88
2022/05/08 10:31:51;;;;;;;6.60;1.27;;;24.00;1.00;;;;;;10427638;28;20200;-90
2022/05/08 10:37:26;;;;;;;1.98;1.38;;;23.90;1.00;;;;;;10400838;28;20229;-92
2022/05/08 10:42:58;;;;;;;4.72;2.13;;;24.10;1.00;;;;;;10399233;28;20205;-87
2022/05/08 10:48:21;;;;;;;4.55;1.50;;;24.10;1.00;;;;;;10385370;28;20331;-90
2022/05/08 10:53:43;;;;;;;3.90;1.20;;;24.20;1.00;;;;;;10371754;28;20221;-92
2022/05/08 10:59:04;;;;;;;5.18;1.83;;;24.30;1.00;;;;;;10396682;28;20197;-86
2022/05/08 11:04:25;;;;;;;7.22;1.70;;;24.30;1.00;;;;;;10409813;28;20272;-91
2022/05/08 11:09:47;;;;;;;3.42;1.33;;;24.10;1.00;;;;;;10398142;28;20248;-86
2022/05/08 11:15:09;;;;;;;3.30;1.15;;;24.00;1.00;;;;;;10396500;28;20429;-87
2022/05/08 11:20:32;;;;;;;5.38;1.60;;;24.10;1.00;;;;;;10381199;28;20209;-89
2022/05/08 11:25:56;;;;;;;4.40;1.98;;;24.30;1.00;;;;;;10394964;28;20259;-89
2022/05/08 11:31:20;;;;;;;5.50;1.77;;;24.50;1.00;;;;;;10348229;28;20247;-89
2022/05/08 11:36:44;;;;;;;8.82;2.28;;;24.20;1.00;;;;;;10383867;28;20237;-91
2022/05/08 11:42:05;;;;;;;4.93;1.85;;;23.80;1.00;;;;;;10398004;28;20495;-88
2022/05/08 11:47:26;;;;;;;5.75;2.17;;;23.30;1.00;;;;;;10383583;28;20224;-90
2022/05/08 11:52:48;;;;;;;4.80;1.95;;;23.30;1.00;;;;;;10383078;28;20244;-83
2022/05/08 11:58:10;;;;;;;5.30;1.90;;;23.30;1.00;;;;;;10397052;28;20567;-87
2022/05/08 12:03:31;;;;;;;6.85;1.83;;;23.60;1.00;;;;;;10397999;28;20495;-88
2022/05/08 12:08:53;;;;;;;3.85;1.45;;;23.90;1.00;;;;;;10368908;28;20236;-86
2022/05/08 12:14:15;;;;;;;3.65;1.80;;;23.70;1.00;;;;;;10396320;28;20268;-87
2022/05/08 12:19:47;;;;;;;7.00;2.08;;;23.60;1.00;;;;;;10382609;28;20224;-86
2022/05/08 12:25:10;;;;;;;4.50;1.80;;;23.30;1.00;;;;;;10388575;28;20208;-87
2022/05/08 12:30:32;;;;;;;3.20;1.52;;;22.80;1.00;;;;;;10395971;28;20549;-85
2022/05/08 12:35:53;;;;;;;5.32;1.60;;;22.70;1.00;;;;;;10381706;28;20292;-89
2022/05/08 12:41:15;;;;;;;6.95;2.08;;;22.90;1.00;;;;;;10381945;28;20363;-90
2022/05/08 12:46:36;;;;;;;4.15;1.60;;;23.00;1.00;;;;;;10381670;28;20205;-91
2022/05/08 12:51:57;;;;;;;2.85;1.20;;;23.40;1.00;;;;;;10381798;28;20204;-85
2022/05/08 13:03:00;;;;;;;3.78;1.70;;;22.80;1.00;;;;;;10381093;28;20556;-85
2022/05/08 13:08:22;;;;;;;4.22;1.70;;;22.50;1.00;;;;;;10380741;28;20245;-84
2022/05/08 13:13:43;;;;;;;3.33;1.30;;;22.40;1.00;;;;;;10395143;28;20216;-86
2022/05/08 13:19:05;;;;;;;4.50;1.60;;;22.50;1.00;;;;;;10380731;28;20204;-88
2022/05/08 13:24:26;;;;;;;2.85;1.48;;;22.30;1.00;;;;;;10380671;28;20207;-86
2022/05/08 13:29:47;;;;;;;4.97;1.98;;;21.90;1.00;;;;;;10394828;28;20224;-85
2022/05/08 13:35:09;;;;;;;4.10;1.80;;;21.90;1.00;;;;;;10398864;28;20236;-85
2022/05/08 13:40:30;;;;;;;1.95;1.48;;;22.00;1.00;;;;;;10402480;28;20199;-88
2022/05/08 13:45:53;;;;;;;5.05;1.52;;;21.90;1.00;;;;;;10374407;28;20450;-84
2022/05/08 13:51:14;;;;;;;4.55;2.88;;;21.70;1.00;;;;;;10401758;28;20232;-89
2022/05/08 13:56:42;;;;;;;4.13;1.92;;;21.80;1.00;;;;;;10387904;28;20201;-84
2022/05/08 14:02:04;;;;;;;3.03;1.80;;;21.00;1.00;;;;;;10387541;28;20201;-86
2022/05/08 14:07:25;;;;;;;2.28;1.35;;;20.90;1.00;;;;;;10387397;28;20213;-88
2022/05/08 14:12:46;;;;;;;3.70;1.73;;;21.10;1.00;;;;;;10401946;28;20247;-90
2022/05/08 14:18:08;;;;;;;5.22;3.72;;;20.90;1.00;;;;;;10404162;28;20239;-92
2022/05/08 14:23:31;;;;;;;3.22;2.25;;;20.50;1.00;;;;;;10405072;28;20507;-87
2022/05/08 14:28:52;;;;;;;8.38;2.30;;;20.30;1.00;;;;;;10402537;28;20227;-92
2022/05/08 14:39:54;;;;;;;3.50;1.80;;;19.90;1.00;;;;;;10421535;28;20228;-91
2022/05/08 14:45:15;;;;;;;3.05;2.00;;;19.90;1.00;;;;;;10391970;28;20247;-93
2022/05/08 14:50:37;;;;;;;3.30;2.10;;;19.70;1.00;;;;;;10372546;28;20527;-90
2022/05/08 14:55:58;;;;;;;2.88;2.10;;;19.40;1.00;;;;;;10385622;28;20197;-90
2022/05/08 15:01:20;;;;;;;3.45;2.15;;;19.20;1.00;;;;;;10385334;28;20193;-90
2022/05/08 15:06:41;;;;;;;2.58;2.20;;;19.00;1.00;;;;;;10400258;28;20200;-90
2022/05/08 15:12:03;;;;;;;3.80;2.13;;;18.80;1.00;;;;;;10399240;28;20252;-83
2022/05/08 15:17:25;;;;;;;3.03;2.13;;;18.40;1.00;;;;;;10384549;28;20558;-89
2022/05/08 15:22:46;;;;;;;2.88;2.05;;;18.20;1.00;;;;;;10384271;28;20196;-90
2022/05/08 15:28:08;;;;;;;4.22;2.15;;;18.10;1.00;;;;;;10384157;28;20419;-89
2022/05/08 15:33:29;;;;;;;3.97;2.67;;;17.80;8.00;;;;;;10398236;28;20228;-88
2022/05/08 15:38:50;;;;;;;7.03;2.55;;;17.70;99.90;;;;;;10384081;28;20266;-89
2022/05/08 15:44:12;;;;;;;3.95;3.08;;;17.40;99.90;;;;;;10397901;28;20196;-89
2022/05/08 15:49:35;;;;;;;4.47;3.20;;;17.10;1.00;;;;;;10369964;28;20244;-90
2022/05/08 15:54:56;;;;;;;4.00;2.88;;;16.80;99.90;;;;;;10383618;28;20225;-89
2022/05/08 16:00:20;;;;;;;3.45;2.85;;;16.90;1.00;;;;;;10383051;28;20208;-89
2022/05/08 16:06:07;;;;;;;5.25;3.50;;;16.70;99.90;;;;;;10397439;28;20199;-91
2022/05/08 16:11:43;;;;;;;4.57;2.85;;;16.70;1.00;;;;;;10382609;28;20464;-88
2022/05/08 16:28:26;;;;;;;7.80;2.88;;;16.50;99.90;;;;;;10395984;28;20280;-88
2022/05/08 16:33:48;;;;;;;4.70;2.83;;;16.30;99.90;;;;;;10382360;28;20199;-90
2022/05/08 16:39:10;;;;;;;5.00;2.25;;;16.00;1.00;;;;;;10382311;28;20204;-89
2022/05/08 16:44:35;;;;;;;3.35;2.25;;;15.80;99.90;;;;;;10368469;28;20204;-89
2022/05/08 16:49:56;;;;;;;6.13;2.58;;;15.70;99.90;;;;;;10381823;28;20235;-86
2022/05/08 16:55:17;;;;;;;3.80;2.90;;;15.40;99.90;;;;;;10381349;28;20520;-89
2022/05/08 17:00:38;;;;;;;4.95;3.42;;;15.10;99.90;;;;;;10367939;28;20203;-90
2022/05/08 17:06:00;;;;;;;4.05;3.05;;;14.80;1.00;;;;;;10381773;28;20445;-90
2022/05/08 17:11:22;;;;;;;4.97;3.47;;;14.70;3.40;;;;;;10374977;28;20235;-88
2022/05/08 17:16:43;;;;;;;6.38;4.22;;;14.40;99.90;;;;;;10389792;28;20219;-89
2022/05/08 17:22:05;;;;;;;6.97;4.40;;;14.20;99.90;;;;;;10375293;28;20250;-90
2022/05/08 17:33:08;;;;;;;34.15;21.83;;;13.80;99.90;;;;;;10388976;28;20266;-90
2022/05/08 17:38:30;;;;;;;23.95;15.57;;;13.30;1.00;;;;;;10375097;28;20238;-89
2022/05/08 17:43:51;;;;;;;19.65;13.80;;;12.90;1.00;;;;;;10394337;28;20263;-89
2022/05/08 17:49:12;;;;;;;14.43;9.20;;;12.70;1.00;;;;;;10424421;28;20221;-88
2022/05/08 17:54:35;;;;;;;17.63;9.07;;;12.50;1.00;;;;;;10404606;28;20194;-90
2022/05/08 17:59:56;;;;;;;10.70;7.55;;;12.30;1.00;;;;;;10388074;28;20212;-90
2022/05/08 18:11:00;;;;;;;9.20;6.55;;;12.10;1.00;;;;;;10387288;28;20282;-89
2022/05/08 18:16:21;;;;;;;13.45;7.05;;;12.00;1.00;;;;;;10387594;28;20423;-88
2022/05/08 18:21:43;;;;;;;12.25;8.00;;;11.90;1.00;;;;;;10386338;28;20424;-89
2022/05/08 18:27:04;;;;;;;9.07;6.33;;;11.70;1.00;;;;;;10386943;28;20232;-90
2022/05/08 18:32:25;;;;;;;8.67;6.43;;;11.60;1.00;;;;;;10386624;28;20211;-89
2022/05/08 18:37:47;;;;;;;9.90;5.93;;;11.60;1.00;;;;;;10386626;28;20243;-88
2022/05/08 18:43:08;;;;;;;9.57;5.83;;;11.50;1.00;;;;;;10372999;28;20211;-89
2022/05/08 18:48:30;;;;;;;10.65;5.53;;;11.60;1.00;;;;;;10372499;28;20226;-88
2022/05/08 18:53:51;;;;;;;7.77;5.93;;;11.50;1.00;;;;;;10386127;28;20209;-90
2022/05/08 18:59:13;;;;;;;10.93;5.40;;;11.40;1.00;;;;;;10385579;28;20212;-89
2022/05/08 19:04:35;;;;;;;8.68;5.35;;;11.40;1.00;;;;;;10385374;28;20211;-89
2022/05/08 19:09:56;;;;;;;9.20;4.90;;;11.30;1.00;;;;;;10371416;28;20220;-89
2022/05/08 19:15:19;;;;;;;10.45;6.35;;;11.30;1.00;;;;;;10385022;28;20527;-88
2022/05/08 19:20:40;;;;;;;7.90;5.75;;;11.20;1.00;;;;;;10384152;28;20211;-87
2022/05/08 19:26:02;;;;;;;8.38;4.90;;;11.20;1.00;;;;;;10384065;28;20495;-87
2022/05/08 19:42:47;;;;;;;8.73;4.90;;;10.90;1.00;;;;;;10397912;28;20204;-87
2022/05/08 19:48:08;;;;;;;10.68;5.20;;;10.80;1.00;;;;;;10383445;28;20218;-87
2022/05/08 19:53:30;;;;;;;9.43;6.20;;;10.80;1.00;;;;;;10383165;28;20202;-88
2022/05/08 19:58:51;;;;;;;11.97;6.30;;;10.70;1.00;;;;;;10383361;28;20322;-87
2022/05/08 20:04:14;;;;;;;11.33;5.90;;;10.80;1.00;;;;;;10397180;28;20239;-85
2022/05/08 20:09:35;;;;;;;6.93;4.20;;;10.60;1.00;;;;;;10369525;28;20232;-87
2022/05/08 20:14:57;;;;;;;7.37;4.50;;;10.50;99.90;;;;;;10382953;28;20200;-89
2022/05/08 20:25:58;;;;;;;12.33;4.73;;;10.30;99.90;;;;;;10382471;28;20275;-86
2022/05/08 20:31:19;;;;;;;7.93;4.13;;;10.30;42.10;;;;;;10397436;28;20330;-87
2022/05/08 20:36:40;;;;;;;6.60;3.20;;;10.20;1.00;;;;;;10381970;28;20614;-86
2022/05/08 20:42:03;;;;;;;6.53;3.07;;;10.10;1.00;;;;;;10368448;28;20204;-86
2022/05/08 20:47:24;;;;;;;8.37;4.03;;;10.00;1.00;;;;;;10395832;28;20204;-87
2022/05/08 20:52:46;;;;;;;6.37;3.40;;;9.90;1.00;;;;;;10381967;28;20532;-87
2022/05/08 20:58:08;;;;;;;4.80;2.70;;;10.00;1.00;;;;;;10396025;28;20203;-88
2022/05/08 21:03:29;;;;;;;6.60;2.70;;;9.90;1.00;;;;;;10395556;28;20250;-88
2022/05/08 21:08:50;;;;;;;4.33;2.10;;;9.80;1.00;;;;;;10381780;28;20232;-89
2022/05/08 21:14:12;;;;;;;3.13;1.63;;;9.80;1.00;;;;;;10381551;28;20553;-89
2022/05/08 21:19:33;;;;;;;7.13;1.40;;;9.70;99.90;;;;;;10395209;28;20262;-90
2022/05/08 21:24:55;;;;;;;5.53;1.73;;;9.60;1.00;;;;;;10381169;28;20281;-88
2022/05/08 21:30:16;;;;;;;4.73;1.87;;;9.50;1.00;;;;;;10367751;28;20236;-88
2022/05/08 21:35:38;;;;;;;2.80;1.53;;;9.40;1.00;;;;;;10388474;28;20246;-86
2022/05/08 21:40:59;;;;;;;4.97;1.63;;;9.40;1.00;;;;;;10407197;28;20230;-87
2022/05/08 21:46:21;;;;;;;5.67;1.73;;;9.40;1.00;;;;;;10380763;28;20397;-87
2022/05/08 21:51:44;;;;;;;6.13;2.00;;;9.30;25.40;;;;;;10367321;28;20226;-88
2022/05/08 21:57:06;;;;;;;5.63;1.67;;;9.10;99.90;;;;;;10387048;28;20219;-88
2022/05/08 22:02:27;;;;;;;4.23;1.80;;;9.00;99.90;;;;;;10387623;28;20200;-87
2022/05/08 22:07:49;;;;;;;8.23;1.60;;;9.00;99.90;;;;;;10388066;28;20207;-89
2022/05/08 22:13:10;;;;;;;3.37;1.50;;;8.90;99.90;;;;;;10373723;28;20204;-86
2022/05/08 22:24:12;;;;;;;3.63;1.67;;;8.80;99.90;;;;;;10400351;28;20502;-83
2022/05/08 22:29:33;;;;;;;6.27;1.27;;;8.80;1.00;;;;;;10373034;28;20270;-88
2022/05/08 22:34:54;;;;;;;2.70;1.30;;;8.70;1.00;;;;;;10386459;28;20283;-88
2022/05/08 22:40:16;;;;;;;2.53;1.37;;;8.60;1.00;;;;;;10401531;28;20279;-90
2022/05/08 22:45:38;;;;;;;3.97;1.60;;;8.60;1.00;;;;;;10385611;28;20204;-87
2022/05/08 22:50:59;;;;;;;3.07;1.60;;;;;;;;;;10385847;28;20242;-88
2022/05/08 22:56:21;;;;;;;5.33;2.33;;;8.60;1.00;;;;;;10386091;28;20273;-89
2022/05/08 23:01:42;;;;;;;3.73;1.33;;;8.50;1.00;;;;;;10400231;28;20221;-85
2022/05/08 23:07:03;;;;;;;2.60;0.90;;;8.50;1.00;;;;;;10384466;28;20197;-88
2022/05/08 23:12:25;;;;;;;4.07;1.80;;;8.50;1.00;;;;;;10399266;28;20449;-86
2022/05/08 23:17:46;;;;;;;2.97;1.40;;;8.40;1.00;;;;;;10399341;28;20197;-87
2022/05/08 23:23:09;;;;;;;3.80;1.60;;;8.40;1.00;;;;;;10398081;28;20581;-86
2022/05/08 23:28:30;;;;;;;4.93;1.10;;;8.50;1.00;;;;;;10384110;28;20242;-87
2022/05/08 23:33:55;;;;;;;3.33;1.20;;;8.50;99.90;;;;;;10384578;28;20237;-87
2022/05/08 23:39:16;;;;;;;1.50;0.97;;;8.50;99.90;;;;;;10370533;28;20244;-90
2022/05/08 23:44:38;;;;;;;2.17;0.87;;;8.60;41.90;;;;;;10384375;28;20199;-86
2022/05/08 23:49:59;;;;;;;2.33;1.57;;;8.60;1.00;;;;;;10397711;28;20229;-86
2022/05/08 23:55:24;;;;;;;1.83;1.20;;;8.60;99.90;;;;;;10383559;28;20274;-87
